M I D A S
Marine Information and Data Acquisition System
Tripno 1828 of the Zeeleeuw from 2009-12-17 07:39:48 to 2009-12-17 15:53:17
Back to CruiseResearch ActivitiesStationsMapUnderway DataData graphs

EquipmentUnitsComment
TimeDGPSUTC
LatitudeDGPSDM.mWGS84
LongitudeDGPSDM.mWGS84
HeadingGyrodeg 
SOGDGPSknotsSpeed over ground
COGDGPSdegCourse over ground
DepthEcho soundermeters200 kHz
Missing or incorrect values are displayed as -999
Navigation data collected by the RV Zeeleeuw from 2009-12-17 07:59:56 to 2009-12-17 16:00:49
                                                                                    Next 1000 lines
Time Latitude Longitude Heading SOG COG Depth
2009-12-17 08:00:07 51°13.662 2°55.957 109 0.7 296 6.4
2009-12-17 08:00:12 51°13.662 2°55.956 108.5 0.8 299 6.4
2009-12-17 08:00:17 51°13.663 2°55.954 108.2 1 297 6.7
2009-12-17 08:00:22 51°13.664 2°55.951 107.8 1.3 298 6.5
2009-12-17 08:00:27 51°13.665 2°55.948 107.5 1.7 294 6.5
2009-12-17 08:00:32 51°13.666 2°55.944 107.1 2 295 -999
2009-12-17 08:00:38 51°13.667 2°55.938 106.8 2.3 293 4.6
2009-12-17 08:00:43 51°13.668 2°55.933 106.3 2.6 293 -999
2009-12-17 08:00:49 51°13.67 2°55.926 105.7 2.7 291 -999
2009-12-17 08:00:55 51°13.672 2°55.919 105.3 2.9 289 -999
2009-12-17 08:01:00 51°13.673 2°55.913 104.6 3 290 -999
2009-12-17 08:01:06 51°13.674 2°55.905 104.3 3 288 -999
2009-12-17 08:01:11 51°13.676 2°55.899 104.1 3.1 288 -999
2009-12-17 08:01:16 51°13.677 2°55.892 104 3.2 287 -999
2009-12-17 08:01:20 51°13.678 2°55.887 104.1 3.3 287 -999
2009-12-17 08:01:26 51°13.68 2°55.878 104.6 3.4 287 -999
2009-12-17 08:01:31 51°13.681 2°55.871 105.4 3.5 287 -999
2009-12-17 08:01:36 51°13.683 2°55.863 106.6 3.5 288 -999
2009-12-17 08:01:40 51°13.684 2°55.857 108.2 3.6 289 -999
2009-12-17 08:01:46 51°13.686 2°55.848 110 3.6 290 -999
2009-12-17 08:01:51 51°13.688 2°55.841 112.1 3.7 293 -999
2009-12-17 08:01:56 51°13.69 2°55.833 114.4 3.9 294 -999
2009-12-17 08:02:00 51°13.692 2°55.826 116.2 4 296 -999
2009-12-17 08:02:06 51°13.695 2°55.817 118.1 4.1 298 -999
2009-12-17 08:02:11 51°13.698 2°55.809 120 4.2 300 -999
2009-12-17 08:02:16 51°13.701 2°55.801 122 4.3 302 -999
2009-12-17 08:02:20 51°13.704 2°55.794 123.5 4.4 304 -999
2009-12-17 08:02:26 51°13.708 2°55.785 125.1 4.4 305 -999
2009-12-17 08:02:31 51°13.712 2°55.777 126.7 4.5 307 -999
2009-12-17 08:02:36 51°13.716 2°55.769 128.3 4.6 309 -999
2009-12-17 08:02:40 51°13.72 2°55.763 129.9 4.7 311 -999
2009-12-17 08:02:46 51°13.725 2°55.753 131.4 4.8 312 -999
2009-12-17 08:02:51 51°13.73 2°55.746 132.7 4.8 313 -999
2009-12-17 08:02:56 51°13.734 2°55.738 133.6 4.8 314 -999
2009-12-17 08:03:00 51°13.738 2°55.732 134.4 4.9 315 -999
2009-12-17 08:03:06 51°13.744 2°55.723 135.1 5 317 -999
2009-12-17 08:03:11 51°13.749 2°55.715 136.2 5 316 -999
2009-12-17 08:03:16 51°13.755 2°55.708 137.3 5 318 -999
2009-12-17 08:03:20 51°13.759 2°55.702 138.1 5.1 318 -999
2009-12-17 08:03:26 51°13.765 2°55.693 139.1 5 320 -999
2009-12-17 08:03:31 51°13.771 2°55.686 140.4 5.1 320 -999
2009-12-17 08:03:36 51°13.776 2°55.679 142 5 322 -999
2009-12-17 08:03:40 51°13.781 2°55.674 143.9 5 324 -999
2009-12-17 08:03:46 51°13.788 2°55.667 146.1 5 326 -999
2009-12-17 08:03:51 51°13.794 2°55.661 148.8 5 329 -999
2009-12-17 08:03:56 51°13.8 2°55.655 151.7 5.1 330 -999
2009-12-17 08:04:00 51°13.805 2°55.651 154.2 5.1 334 -999
2009-12-17 08:04:06 51°13.812 2°55.646 156.9 5.1 336 -999
2009-12-17 08:04:11 51°13.819 2°55.642 159.8 5.1 339 -999
2009-12-17 08:04:16 51°13.826 2°55.638 162.7 5.1 341 -999
2009-12-17 08:04:20 51°13.831 2°55.636 165.6 5.1 345 -999
2009-12-17 08:04:26 51°13.839 2°55.633 168.4 5.1 347 -999
2009-12-17 08:04:31 51°13.846 2°55.631 171.2 5.1 350 -999
2009-12-17 08:04:36 51°13.853 2°55.629 174.1 5.1 353 -999
2009-12-17 08:04:40 51°13.859 2°55.629 177.1 4.9 356 -999
2009-12-17 08:04:46 51°13.867 2°55.628 180.1 4.7 358 -999
2009-12-17 08:04:51 51°13.873 2°55.629 182.9 4.5 1 -999
2009-12-17 08:04:55 51°13.878 2°55.629 185.6 4.4 4 -999
2009-12-17 08:05:01 51°13.885 2°55.63 188.4 4.3 6 -999
2009-12-17 08:05:06 51°13.891 2°55.632 191.3 4.2 9 -999
2009-12-17 08:05:11 51°13.896 2°55.634 194.1 4.1 12 -999
2009-12-17 08:05:16 51°13.902 2°55.636 197 4 14 -999
2009-12-17 08:05:20 51°13.906 2°55.638 199.9 3.8 18 -999
2009-12-17 08:05:26 51°13.911 2°55.641 202.6 3.6 19 -999
2009-12-17 08:05:31 51°13.916 2°55.643 205.4 3.4 21 -999
2009-12-17 08:05:36 51°13.92 2°55.646 207.7 3.2 22 -999
2009-12-17 08:05:40 51°13.923 2°55.648 209.8 2.9 24 -999
2009-12-17 08:05:46 51°13.927 2°55.651 212 2.7 24 -999
2009-12-17 08:05:51 51°13.93 2°55.654 213.7 2.5 26 -999
2009-12-17 08:05:55 51°13.932 2°55.656 215.4 2.3 26 10.6
2009-12-17 08:06:00 51°13.935 2°55.657 217 2 27 10.7
2009-12-17 08:06:05 51°13.937 2°55.659 218.6 1.6 25 10.6
2009-12-17 08:06:10 51°13.938 2°55.66 220.8 1.2 21 10.7
2009-12-17 08:06:15 51°13.939 2°55.66 223.4 0.8 9 10.6
2009-12-17 08:06:20 51°13.94 2°55.66 226.7 0.6 352 10.7
2009-12-17 08:06:24 51°13.94 2°55.66 230.9 0.6 321 10.7
2009-12-17 08:06:29 51°13.941 2°55.658 235.5 0.7 297 10.8
2009-12-17 08:06:34 51°13.941 2°55.656 240.4 0.9 283 10.6
2009-12-17 08:06:39 51°13.941 2°55.654 245.6 1.2 281 10.7
2009-12-17 08:06:44 51°13.942 2°55.651 251.2 1.3 280 10.7
2009-12-17 08:06:48 51°13.942 2°55.648 256.9 1.6 280 10.7
2009-12-17 08:06:54 51°13.943 2°55.643 262.5 1.8 283 10.7
2009-12-17 08:06:59 51°13.944 2°55.639 268.2 2.2 286 10.4
2009-12-17 08:07:03 51°13.944 2°55.635 275.4 2.5 291 10.6
2009-12-17 08:07:08 51°13.946 2°55.629 280.8 2.7 296 10.5
2009-12-17 08:07:13 51°13.948 2°55.623 288 3 300 10
2009-12-17 08:07:18 51°13.951 2°55.617 295.5 3.4 307 10.7
2009-12-17 08:07:23 51°13.954 2°55.611 302.3 3.7 310 10.6
2009-12-17 08:07:27 51°13.958 2°55.606 308.4 4.1 315 10.2
2009-12-17 08:07:32 51°13.963 2°55.6 313.6 4.5 319 10.3
2009-12-17 08:07:37 51°13.968 2°55.593 317.3 4.9 321 10.5
2009-12-17 08:07:42 51°13.974 2°55.586 319.6 5.4 323 10.6
2009-12-17 08:07:47 51°13.98 2°55.579 322 5.8 325 10.6
2009-12-17 08:07:52 51°13.987 2°55.571 323.4 6.1 325 10.6
2009-12-17 08:07:57 51°13.995 2°55.563 323.5 6.5 325 10.6
2009-12-17 08:08:02 51°14.002 2°55.554 323.2 6.9 324 10.6
2009-12-17 08:08:07 51°14.01 2°55.545 323.6 7.1 325 10.6
2009-12-17 08:08:12 51°14.019 2°55.536 323.8 7.3 324 10.4
2009-12-17 08:08:17 51°14.027 2°55.526 323.9 7.6 325 9.6
2009-12-17 08:08:22 51°14.036 2°55.516 324.1 7.8 324 10.2
2009-12-17 08:08:27 51°14.045 2°55.506 324.4 8 325 10.3
2009-12-17 08:08:32 51°14.054 2°55.495 324.5 8.2 324 10.3
2009-12-17 08:08:37 51°14.064 2°55.485 324.2 8.3 325 10.3
2009-12-17 08:08:42 51°14.073 2°55.474 324.8 8.4 325 10.3
2009-12-17 08:08:47 51°14.083 2°55.463 325.1 8.5 325 10.2
2009-12-17 08:08:52 51°14.093 2°55.453 325.7 8.5 326 10.2
2009-12-17 08:08:56 51°14.1 2°55.444 325.7 8.6 325 10.2
2009-12-17 08:09:02 51°14.112 2°55.431 325.2 8.6 326 10.2
2009-12-17 08:09:07 51°14.122 2°55.42 325.2 8.6 326 10.3
2009-12-17 08:09:12 51°14.132 2°55.409 325.3 8.7 325 10
2009-12-17 08:09:17 51°14.142 2°55.398 325.1 8.7 326 10.1
2009-12-17 08:09:22 51°14.152 2°55.388 325.2 8.7 326 10.1
2009-12-17 08:09:27 51°14.162 2°55.376 325 8.8 325 10.3
2009-12-17 08:09:32 51°14.172 2°55.366 324.7 8.7 325 10.3
2009-12-17 08:09:37 51°14.182 2°55.355 325.3 8.8 326 10.2
2009-12-17 08:09:42 51°14.192 2°55.344 326 8.8 326 10.2
2009-12-17 08:09:47 51°14.202 2°55.333 325.8 8.9 325 10.2
2009-12-17 08:09:52 51°14.212 2°55.321 324.1 8.9 323 10.2
2009-12-17 08:09:56 51°14.22 2°55.311 323.8 8.8 324 10.2
2009-12-17 08:10:02 51°14.232 2°55.298 324.5 8.8 323 10.4
2009-12-17 08:10:07 51°14.242 2°55.286 322.9 8.8 320 10.3
2009-12-17 08:10:12 51°14.251 2°55.272 319.2 8.9 317 10.2
2009-12-17 08:10:17 51°14.259 2°55.259 316.9 8.8 316 10.1
2009-12-17 08:10:22 51°14.268 2°55.245 315.8 8.9 315 10.2
2009-12-17 08:10:27 51°14.277 2°55.23 314.2 9 312 10
2009-12-17 08:10:32 51°14.285 2°55.215 312.7 9 313 9.8
2009-12-17 08:10:36 51°14.292 2°55.204 311.8 9 311 10.3
2009-12-17 08:10:42 51°14.302 2°55.185 310.7 9.1 311 10.3
2009-12-17 08:10:47 51°14.31 2°55.17 310.2 9.2 309 9.9
2009-12-17 08:10:52 51°14.318 2°55.154 308.6 9.2 307 10
2009-12-17 08:10:57 51°14.325 2°55.137 307 9.3 306 10
2009-12-17 08:11:02 51°14.333 2°55.12 305.9 9.5 305 10.1
2009-12-17 08:11:07 51°14.34 2°55.102 305.5 9.6 305 10.1
2009-12-17 08:11:12 51°14.348 2°55.084 304.6 9.7 303 9.9
2009-12-17 08:11:17 51°14.355 2°55.066 303.5 9.8 303 9.8
2009-12-17 08:11:22 51°14.363 2°55.047 303.1 10 302 9.9
2009-12-17 08:11:27 51°14.369 2°55.028 301.7 10.1 298 9.4
2009-12-17 08:11:32 51°14.375 2°55.007 299 10.3 296 9
2009-12-17 08:11:37 51°14.38 2°54.986 294.5 10.3 290 8.7
2009-12-17 08:11:42 51°14.384 2°54.964 289.3 10.5 286 8.7
2009-12-17 08:11:47 51°14.388 2°54.941 285.6 10.6 282 8.7
2009-12-17 08:11:52 51°14.39 2°54.918 282.7 10.6 281 8.7
2009-12-17 08:11:56 51°14.392 2°54.899 279.6 10.7 277 8.7
2009-12-17 08:12:02 51°14.393 2°54.87 276.1 10.8 273 8.8
2009-12-17 08:12:07 51°14.393 2°54.846 273 10.9 270 9.1
2009-12-17 08:12:12 51°14.392 2°54.822 270.3 11 267 9.1
2009-12-17 08:12:17 51°14.39 2°54.797 266.8 11.1 263 9.2
2009-12-17 08:12:22 51°14.387 2°54.773 263 11.3 258 9.3
2009-12-17 08:12:27 51°14.384 2°54.748 259.5 11.4 255 9.2
2009-12-17 08:12:32 51°14.379 2°54.724 256.2 11.4 253 9
2009-12-17 08:12:37 51°14.373 2°54.7 252.8 11.5 250 8.9
2009-12-17 08:12:42 51°14.367 2°54.676 249.8 11.6 248 8.9
2009-12-17 08:12:47 51°14.361 2°54.653 246.9 11.7 246 8.7
2009-12-17 08:12:52 51°14.354 2°54.629 245.7 11.7 246 8.8
2009-12-17 08:12:57 51°14.347 2°54.605 244.5 11.8 245 8.4
2009-12-17 08:13:02 51°14.339 2°54.582 244 11.9 244 8.5
2009-12-17 08:13:07 51°14.333 2°54.558 244.8 11.9 246 8.5
2009-12-17 08:13:12 51°14.326 2°54.534 245.1 11.9 246 8.3
2009-12-17 08:13:17 51°14.319 2°54.51 244.7 11.9 244 8.6
2009-12-17 08:13:22 51°14.312 2°54.486 244.1 12 244 8.6
2009-12-17 08:13:27 51°14.304 2°54.462 243.8 12.1 244 8.6
2009-12-17 08:13:32 51°14.297 2°54.438 244.3 12 246 8.3
2009-12-17 08:13:36 51°14.291 2°54.419 244.2 12.1 242 8.7
2009-12-17 08:13:42 51°14.283 2°54.39 244.3 12.1 247 8.2
2009-12-17 08:13:47 51°14.275 2°54.366 244.7 12.1 244 8.3
2009-12-17 08:13:52 51°14.268 2°54.342 244.3 12.1 245 8.6
2009-12-17 08:13:57 51°14.261 2°54.317 244.7 12 245 8.5
2009-12-17 08:14:02 51°14.255 2°54.293 245.5 12.1 246 8.4
2009-12-17 08:14:07 51°14.248 2°54.269 245 12.1 245 8.3
2009-12-17 08:14:12 51°14.24 2°54.245 243.9 12.1 243 8.5
2009-12-17 08:14:16 51°14.235 2°54.225 244.1 12.1 246 8.4
2009-12-17 08:14:22 51°14.226 2°54.196 244.2 12.1 244 8.5
2009-12-17 08:14:27 51°14.219 2°54.172 244.7 12.1 246 8.4
2009-12-17 08:14:32 51°14.212 2°54.148 244.7 12.1 244 8.3
2009-12-17 08:14:36 51°14.206 2°54.129 244.1 12.2 245 8.3
2009-12-17 08:14:42 51°14.197 2°54.099 244 12.2 243 8.3
2009-12-17 08:14:47 51°14.19 2°54.075 243.4 12.2 246 8.2
2009-12-17 08:14:52 51°14.183 2°54.051 243.5 12 244 8.2
2009-12-17 08:14:57 51°14.175 2°54.027 242.6 12.2 243 8.3
2009-12-17 08:15:02 51°14.168 2°54.003 243.6 12.1 245 8.2
2009-12-17 08:15:07 51°14.16 2°53.979 243 12.2 244 8.2
2009-12-17 08:15:12 51°14.153 2°53.955 243.4 12.2 245 8.4
2009-12-17 08:15:17 51°14.145 2°53.931 243.7 12.2 243 8.6
2009-12-17 08:15:22 51°14.138 2°53.906 244 12.2 246 8.3
2009-12-17 08:15:27 51°14.13 2°53.882 244 12.2 242 8.6
2009-12-17 08:15:32 51°14.124 2°53.857 244 12.2 248 8.1
2009-12-17 08:15:37 51°14.115 2°53.834 243.2 12.2 242 8.2
2009-12-17 08:15:42 51°14.109 2°53.809 244.1 12.2 247 8.4
2009-12-17 08:15:47 51°14.101 2°53.785 243.8 12.2 242 8.4
2009-12-17 08:15:52 51°14.094 2°53.76 244.1 12.3 247 8.4
2009-12-17 08:15:56 51°14.089 2°53.74 245 12.2 245 8.6
2009-12-17 08:16:02 51°14.08 2°53.711 244.7 12.2 244 8.6
2009-12-17 08:16:07 51°14.073 2°53.687 244 12.3 246 8.4
2009-12-17 08:16:12 51°14.065 2°53.662 244.1 12.3 244 8.7
2009-12-17 08:16:16 51°14.06 2°53.642 244.8 12.2 247 8.4
2009-12-17 08:16:22 51°14.051 2°53.613 245 12.2 244 8.6
2009-12-17 08:16:27 51°14.044 2°53.589 244.4 12.3 244 8.6
2009-12-17 08:16:32 51°14.036 2°53.565 243.8 12.3 244 8.5
2009-12-17 08:16:37 51°14.029 2°53.54 244.7 12.3 246 8.7
2009-12-17 08:16:42 51°14.022 2°53.515 244.4 12.3 245 8.8
2009-12-17 08:16:47 51°14.015 2°53.49 245.6 12.3 246 8.6
2009-12-17 08:16:52 51°14.007 2°53.466 245.1 12.4 244 8.9
2009-12-17 08:16:57 51°14.001 2°53.441 245.7 12.3 248 8.6
2009-12-17 08:17:02 51°13.993 2°53.416 244.9 12.5 244 8.7
2009-12-17 08:17:07 51°13.987 2°53.391 246.1 12.3 247 8.8
2009-12-17 08:17:12 51°13.979 2°53.366 245.5 12.3 243 8.7
2009-12-17 08:17:16 51°13.973 2°53.347 244.8 12.3 249 8.6
2009-12-17 08:17:22 51°13.965 2°53.316 246.2 12.3 245 8.7
2009-12-17 08:17:27 51°13.958 2°53.292 244.7 12.4 248 8.7
2009-12-17 08:17:32 51°13.951 2°53.267 245.3 12.3 244 9.2
2009-12-17 08:17:37 51°13.944 2°53.242 244.7 12.4 247 8.9
2009-12-17 08:17:42 51°13.937 2°53.217 245.8 12.4 244 8.8
2009-12-17 08:17:47 51°13.929 2°53.192 245.1 12.5 246 9
2009-12-17 08:17:52 51°13.923 2°53.167 245.6 12.4 246 9.1
2009-12-17 08:17:57 51°13.915 2°53.142 245.3 12.5 245 9
2009-12-17 08:18:02 51°13.908 2°53.117 245.7 12.5 247 9.1
2009-12-17 08:18:07 51°13.901 2°53.092 245.6 12.5 244 9.2
2009-12-17 08:18:12 51°13.894 2°53.067 245 12.5 246 9.4
2009-12-17 08:18:17 51°13.886 2°53.042 245.6 12.4 245 9.3
2009-12-17 08:18:22 51°13.879 2°53.017 244.9 12.5 245 9.3
2009-12-17 08:18:27 51°13.872 2°52.992 245.2 12.5 245 9.2
2009-12-17 08:18:32 51°13.864 2°52.967 245.1 12.5 245 9.4
2009-12-17 08:18:37 51°13.857 2°52.941 245.5 12.5 245 9.4
2009-12-17 08:18:42 51°13.85 2°52.916 244.7 12.5 246 9.4
2009-12-17 08:18:47 51°13.843 2°52.891 245.2 12.5 246 9.4
2009-12-17 08:18:52 51°13.835 2°52.866 244.9 12.5 245 9.4
2009-12-17 08:18:56 51°13.829 2°52.846 244.9 12.5 245 9.5
2009-12-17 08:19:02 51°13.82 2°52.816 244.7 12.6 244 9.8
2009-12-17 08:19:07 51°13.814 2°52.791 245.4 12.5 245 9.6
2009-12-17 08:19:12 51°13.806 2°52.766 245.3 12.5 244 9.8
2009-12-17 08:19:17 51°13.799 2°52.741 245 12.5 244 10
2009-12-17 08:19:22 51°13.792 2°52.716 245 12.5 246 9.5
2009-12-17 08:19:27 51°13.784 2°52.691 245 12.6 244 9.7
2009-12-17 08:19:32 51°13.777 2°52.666 244.6 12.5 246 9.5
2009-12-17 08:19:36 51°13.771 2°52.646 244.6 12.5 243 9.6
2009-12-17 08:19:42 51°13.762 2°52.616 244.2 12.5 246 9.8
2009-12-17 08:19:47 51°13.755 2°52.59 245 12.5 245 9.6
2009-12-17 08:19:52 51°13.747 2°52.566 244.6 12.5 244 9.8
2009-12-17 08:19:57 51°13.74 2°52.54 244.7 12.5 247 9.4
2009-12-17 08:20:02 51°13.732 2°52.515 244.6 12.7 244 9.8
2009-12-17 08:20:07 51°13.725 2°52.49 244 12.5 246 9.6
2009-12-17 08:20:12 51°13.718 2°52.465 244.1 12.5 244 9.7
2009-12-17 08:20:17 51°13.71 2°52.44 244 12.6 247 10
2009-12-17 08:20:22 51°13.703 2°52.415 245.1 12.5 244 9.9
2009-12-17 08:20:27 51°13.696 2°52.39 244.4 12.5 245 9.8
2009-12-17 08:20:32 51°13.689 2°52.365 244.4 12.5 246 9.8
2009-12-17 08:20:37 51°13.681 2°52.34 244.6 12.5 244 10
2009-12-17 08:20:42 51°13.674 2°52.314 244.6 12.6 245 10.2
2009-12-17 08:20:47 51°13.667 2°52.289 245.2 12.5 246 9.9
2009-12-17 08:20:52 51°13.659 2°52.264 244.5 12.6 242 10.1
2009-12-17 08:20:57 51°13.652 2°52.239 244.4 12.6 249 10
2009-12-17 08:21:02 51°13.644 2°52.214 245.5 12.6 240 10.3
2009-12-17 08:21:07 51°13.637 2°52.189 243.6 12.5 248 9.9
2009-12-17 08:21:12 51°13.629 2°52.164 244.8 12.5 243 10.1
2009-12-17 08:21:16 51°13.623 2°52.144 243.2 12.6 243 10
2009-12-17 08:21:22 51°13.613 2°52.115 242.2 12.5 243 9.9
2009-12-17 08:21:27 51°13.605 2°52.09 241.8 12.5 242 10
2009-12-17 08:21:32 51°13.596 2°52.066 240.9 12.5 241 10.3
2009-12-17 08:21:37 51°13.588 2°52.042 240.5 12.6 242 10
2009-12-17 08:21:42 51°13.58 2°52.018 240.3 12.5 241 10
2009-12-17 08:21:47 51°13.57 2°51.994 239.3 12.6 240 10.3
2009-12-17 08:21:52 51°13.563 2°51.969 240.3 12.6 242 10
2009-12-17 08:21:56 51°13.555 2°51.95 239.4 12.6 240 10
2009-12-17 08:22:02 51°13.545 2°51.921 239.6 12.5 241 10.1
2009-12-17 08:22:07 51°13.536 2°51.898 239.3 12.6 239 10.2
2009-12-17 08:22:12 51°13.528 2°51.873 239 12.6 241 10.2
2009-12-17 08:22:16 51°13.52 2°51.854 238.9 12.5 240 10
2009-12-17 08:22:22 51°13.51 2°51.825 239.4 12.5 240 9.9
2009-12-17 08:22:27 51°13.5 2°51.802 238.7 12.6 237 10.5
2009-12-17 08:22:32 51°13.493 2°51.777 239.4 12.6 242 10.1
2009-12-17 08:22:37 51°13.483 2°51.754 238.6 12.6 236 10.3
2009-12-17 08:22:42 51°13.475 2°51.729 239.3 12.5 243 10
2009-12-17 08:22:47 51°13.465 2°51.706 238.9 12.6 237 10.2
2009-12-17 08:22:52 51°13.458 2°51.681 238.9 12.6 242 10.3
2009-12-17 08:22:57 51°13.449 2°51.657 239.4 12.5 239 10.1
2009-12-17 08:23:02 51°13.44 2°51.633 238.3 12.6 239 10.3
2009-12-17 08:23:07 51°13.432 2°51.609 239.6 12.4 242 10.2
2009-12-17 08:23:12 51°13.422 2°51.586 238.8 12.5 236 10.1
2009-12-17 08:23:16 51°13.416 2°51.566 238.1 12.6 243 10.2
2009-12-17 08:23:22 51°13.406 2°51.538 239.4 12.4 235 10.1
2009-12-17 08:23:27 51°13.396 2°51.515 237.2 12.5 243 10.5
2009-12-17 08:23:32 51°13.388 2°51.491 239.9 12.3 240 10.6
2009-12-17 08:23:36 51°13.38 2°51.473 237.4 12.3 237 10.2
2009-12-17 08:23:42 51°13.37 2°51.444 237.2 12.3 241 10.2
2009-12-17 08:23:47 51°13.361 2°51.421 238.9 12.2 238 10.2
2009-12-17 08:23:52 51°13.352 2°51.398 237.6 12.4 239 10.2
2009-12-17 08:23:57 51°13.344 2°51.374 238.6 12.3 241 10.4
2009-12-17 08:24:02 51°13.335 2°51.351 238.7 12.2 237 10.4
2009-12-17 08:24:07 51°13.326 2°51.327 237.8 12.3 243 10.4
2009-12-17 08:24:12 51°13.319 2°51.304 239.9 12.1 240 10.3
2009-12-17 08:24:17 51°13.309 2°51.281 237.5 12.3 237 10.5
2009-12-17 08:24:22 51°13.301 2°51.257 238.5 12.2 241 10.4
2009-12-17 08:24:27 51°13.292 2°51.235 238.6 12.3 238 10.3
2009-12-17 08:24:32 51°13.284 2°51.21 238.8 12.3 241 10.4
2009-12-17 08:24:37 51°13.275 2°51.188 238.9 12.3 240 10.6
2009-12-17 08:24:42 51°13.267 2°51.164 239.6 12.2 242 10.3
2009-12-17 08:24:47 51°13.258 2°51.141 238.6 12.4 240 10.6
2009-12-17 08:24:52 51°13.25 2°51.116 239.6 12.3 243 10.5
2009-12-17 08:24:57 51°13.241 2°51.093 239 12.3 238 10.3
2009-12-17 08:25:02 51°13.233 2°51.069 238.8 12.3 243 10.6
2009-12-17 08:25:07 51°13.225 2°51.046 239.8 12.3 237 10.5
2009-12-17 08:25:12 51°13.215 2°51.022 238.3 12.4 241 10.5
2009-12-17 08:25:17 51°13.208 2°50.998 240.7 12.1 240 10.5
2009-12-17 08:25:22 51°13.198 2°50.976 238.2 12.3 238 10.6
2009-12-17 08:25:27 51°13.191 2°50.951 240 12.3 245 10.6
2009-12-17 08:25:32 51°13.182 2°50.929 240.3 12.3 235 10.9
2009-12-17 08:25:36 51°13.176 2°50.909 238.9 12.3 245 10.5
2009-12-17 08:25:42 51°13.165 2°50.881 239.6 12.3 236 10.7
2009-12-17 08:25:47 51°13.157 2°50.858 238.8 12.3 244 10.7
2009-12-17 08:25:52 51°13.149 2°50.834 239.7 12.1 239 10.7
2009-12-17 08:25:57 51°13.14 2°50.811 238.9 12.3 241 10.7
2009-12-17 08:26:02 51°13.132 2°50.787 240.1 12.2 242 10.5
2009-12-17 08:26:07 51°13.123 2°50.764 239.2 12.3 240 10.8
2009-12-17 08:26:12 51°13.116 2°50.739 240 12.3 243 10.4
2009-12-17 08:26:17 51°13.106 2°50.717 238.9 12.3 238 10.7
2009-12-17 08:26:22 51°13.099 2°50.692 239.8 12.3 241 10.7
2009-12-17 08:26:27 51°13.09 2°50.669 239.4 12.3 240 10.7
2009-12-17 08:26:32 51°13.081 2°50.645 238.7 12.3 241 10.7
2009-12-17 08:26:37 51°13.073 2°50.622 239.6 12.3 240 10.8
2009-12-17 08:26:42 51°13.064 2°50.598 239.1 12.2 240 10.7
2009-12-17 08:26:47 51°13.056 2°50.574 239.3 12.3 242 10.3
2009-12-17 08:26:52 51°13.047 2°50.551 239.2 12.4 240 10.6
2009-12-17 08:26:57 51°13.04 2°50.527 239.5 12.2 241 10.4
2009-12-17 08:27:02 51°13.03 2°50.504 238.3 12.3 240 10.7
2009-12-17 08:27:07 51°13.023 2°50.48 240.4 12.2 242 10.8
2009-12-17 08:27:12 51°13.014 2°50.457 240 12.3 239 10.6
2009-12-17 08:27:17 51°13.005 2°50.433 238.4 12.3 240 10.9
2009-12-17 08:27:22 51°12.997 2°50.409 239.1 12.2 239 10.7
2009-12-17 08:27:27 51°12.988 2°50.386 238.2 12.4 240 10.8
2009-12-17 08:27:32 51°12.981 2°50.362 239.6 12.3 243 10.6
2009-12-17 08:27:37 51°12.971 2°50.34 238.3 12.3 237 10.7
2009-12-17 08:27:42 51°12.963 2°50.315 238.9 12.2 241 11.1
2009-12-17 08:27:47 51°12.955 2°50.292 238.9 12.2 238 10.7
2009-12-17 08:27:52 51°12.946 2°50.269 238.5 12.3 241 10.5
2009-12-17 08:27:57 51°12.937 2°50.246 238.3 12.2 240 10.9
2009-12-17 08:28:02 51°12.929 2°50.222 239 12.2 238 10.8
2009-12-17 08:28:07 51°12.92 2°50.199 238.2 12.4 242 11
2009-12-17 08:28:12 51°12.912 2°50.175 239.7 12.2 240 11
2009-12-17 08:28:17 51°12.903 2°50.152 238.5 12.3 239 10.8
2009-12-17 08:28:22 51°12.895 2°50.128 239 12.3 243 10.6
2009-12-17 08:28:27 51°12.886 2°50.105 239.4 12.2 239 10.8
2009-12-17 08:28:32 51°12.878 2°50.081 239.5 12.1 242 10.7
2009-12-17 08:28:37 51°12.869 2°50.058 238.9 12.3 238 11.1
2009-12-17 08:28:42 51°12.862 2°50.034 240 12.2 242 11
2009-12-17 08:28:47 51°12.853 2°50.012 239.7 12.2 239 10.7
2009-12-17 08:28:52 51°12.844 2°49.988 239 12.3 241 11
2009-12-17 08:28:57 51°12.836 2°49.964 240 12.2 240 10.8
2009-12-17 08:29:02 51°12.827 2°49.941 239.1 12.3 241 10.9
2009-12-17 08:29:07 51°12.819 2°49.917 239.7 12.2 240 11.1
2009-12-17 08:29:12 51°12.811 2°49.894 239.1 12.2 239 10.9
2009-12-17 08:29:16 51°12.804 2°49.875 238.9 12.2 241 10.9
2009-12-17 08:29:22 51°12.794 2°49.847 239.4 12.2 241 11
2009-12-17 08:29:27 51°12.785 2°49.824 239.5 12.3 239 11
2009-12-17 08:29:32 51°12.777 2°49.8 239.1 12.3 242 11
2009-12-17 08:29:37 51°12.769 2°49.777 239.7 12.3 239 11
2009-12-17 08:29:42 51°12.76 2°49.753 239.3 12.3 243 11.1
2009-12-17 08:29:47 51°12.752 2°49.73 240.1 12.2 238 11.1
2009-12-17 08:29:52 51°12.744 2°49.706 238.9 12.2 242 10.8
2009-12-17 08:29:57 51°12.735 2°49.683 239.6 12.2 240 11.2
2009-12-17 08:30:02 51°12.727 2°49.659 239.7 12.3 240 11
2009-12-17 08:30:07 51°12.719 2°49.635 239.2 12.2 241 11.1
2009-12-17 08:30:12 51°12.71 2°49.612 239.6 12.2 240 11
2009-12-17 08:30:17 51°12.702 2°49.589 239 12.3 241 11.1
2009-12-17 08:30:22 51°12.693 2°49.565 239.9 12.3 241 11
2009-12-17 08:30:27 51°12.685 2°49.541 238.9 12.3 240 10.8
2009-12-17 08:30:32 51°12.676 2°49.518 238.5 12.3 240 11.2
2009-12-17 08:30:37 51°12.667 2°49.494 238.5 12.3 238 11.4
2009-12-17 08:30:42 51°12.659 2°49.47 238.8 12.4 241 11.2
2009-12-17 08:30:47 51°12.65 2°49.447 238.9 12.4 240 11.1
2009-12-17 08:30:52 51°12.642 2°49.423 239.5 12.4 240 11.2
2009-12-17 08:30:57 51°12.633 2°49.4 238.9 12.3 240 11.1
2009-12-17 08:31:02 51°12.625 2°49.376 239.3 12.3 240 11.1
2009-12-17 08:31:07 51°12.616 2°49.352 239.1 12.4 241 11.3
2009-12-17 08:31:12 51°12.608 2°49.328 239.4 12.4 240 11.1
2009-12-17 08:31:17 51°12.599 2°49.305 238.7 12.5 240 11.3
2009-12-17 08:31:22 51°12.591 2°49.281 239.8 12.2 239 11.2
2009-12-17 08:31:27 51°12.582 2°49.257 238.9 12.4 239 11.1
2009-12-17 08:31:32 51°12.574 2°49.233 239.1 12.4 242 11.1
2009-12-17 08:31:37 51°12.566 2°49.21 239.6 12.3 240 11
2009-12-17 08:31:42 51°12.556 2°49.187 238.5 12.5 240 11.4
2009-12-17 08:31:47 51°12.549 2°49.162 239.6 12.3 242 11.2
2009-12-17 08:31:52 51°12.54 2°49.139 239.2 12.3 237 11.3
2009-12-17 08:31:57 51°12.532 2°49.115 239.1 12.4 243 11.3
2009-12-17 08:32:02 51°12.523 2°49.091 240.2 12.3 238 11.3
2009-12-17 08:32:07 51°12.515 2°49.068 238.9 12.4 242 11
2009-12-17 08:32:12 51°12.506 2°49.044 238.8 12.3 241 11
2009-12-17 08:32:16 51°12.499 2°49.026 238.8 12.4 239 11.4
2009-12-17 08:32:22 51°12.489 2°48.996 239.9 12.3 241 11.1
2009-12-17 08:32:27 51°12.48 2°48.974 238.7 12.4 239 11.3
2009-12-17 08:32:32 51°12.472 2°48.949 239.8 12.3 242 11.4
2009-12-17 08:32:37 51°12.463 2°48.926 239.3 12.4 239 11.1
2009-12-17 08:32:42 51°12.455 2°48.902 239.4 12.3 242 10.9
2009-12-17 08:32:47 51°12.446 2°48.879 239 12.3 239 11
2009-12-17 08:32:52 51°12.438 2°48.855 239.4 12.3 242 10.9
2009-12-17 08:32:57 51°12.429 2°48.832 239.2 12.3 240 11.2
2009-12-17 08:33:02 51°12.421 2°48.808 239.8 12.2 241 11.2
2009-12-17 08:33:07 51°12.413 2°48.785 239.4 12.3 241 11.1
2009-12-17 08:33:12 51°12.404 2°48.761 239.7 12.3 240 11.2
2009-12-17 08:33:17 51°12.396 2°48.738 239.6 12.2 241 11.1
2009-12-17 08:33:22 51°12.387 2°48.714 239.2 12.3 240 11.1
2009-12-17 08:33:27 51°12.379 2°48.691 239.7 12.3 241 11.2
2009-12-17 08:33:32 51°12.37 2°48.667 239.5 12.3 240 11.1
2009-12-17 08:33:37 51°12.362 2°48.643 239.9 12.2 241 10.9
2009-12-17 08:33:42 51°12.353 2°48.621 238.9 12.2 239 11.1
2009-12-17 08:33:47 51°12.345 2°48.597 239 12.2 241 11.3
2009-12-17 08:33:52 51°12.336 2°48.574 238.9 12.3 238 11.3
2009-12-17 08:33:57 51°12.328 2°48.55 239.8 12.1 242 11.1
2009-12-17 08:34:02 51°12.319 2°48.527 238.9 12.3 238 11.4
2009-12-17 08:34:07 51°12.312 2°48.503 239 12.2 245 11.2
2009-12-17 08:34:12 51°12.302 2°48.481 239.2 12.1 235 11.6
2009-12-17 08:34:16 51°12.296 2°48.462 238.7 12.2 243 11.4
2009-12-17 08:34:22 51°12.286 2°48.434 240.2 12.2 237 11.5
2009-12-17 08:34:27 51°12.277 2°48.411 238.5 12.2 241 11.3
2009-12-17 08:34:32 51°12.269 2°48.388 239.6 12.1 240 11.1
2009-12-17 08:34:37 51°12.26 2°48.365 238.6 12.2 239 11.2
2009-12-17 08:34:42 51°12.252 2°48.341 239.1 12.2 240 11.1
2009-12-17 08:34:47 51°12.243 2°48.318 238.9 12.2 241 11.3
2009-12-17 08:34:52 51°12.235 2°48.295 239.3 12.1 240 11.1
2009-12-17 08:34:57 51°12.227 2°48.272 238.8 12.3 241 11
2009-12-17 08:35:02 51°12.218 2°48.248 240.2 12.1 239 11.2
2009-12-17 08:35:07 51°12.21 2°48.225 239.1 12.2 240 11.2
2009-12-17 08:35:12 51°12.201 2°48.201 239.3 12.2 242 10.9
2009-12-17 08:35:17 51°12.193 2°48.178 239.7 12.2 239 11.3
2009-12-17 08:35:22 51°12.185 2°48.155 240 12.2 239 11.2
2009-12-17 08:35:27 51°12.176 2°48.131 239.6 12.2 241 11
2009-12-17 08:35:32 51°12.167 2°48.108 239.3 12.2 239 11
2009-12-17 08:35:37 51°12.159 2°48.085 239.3 12.2 241 10.9
2009-12-17 08:35:42 51°12.15 2°48.062 239.3 12.2 239 11.2
2009-12-17 08:35:47 51°12.142 2°48.038 239.5 12.2 241 11.3
2009-12-17 08:35:52 51°12.133 2°48.015 238.9 12.2 238 11.3
2009-12-17 08:35:57 51°12.125 2°47.991 239.7 12.2 241 11
2009-12-17 08:36:02 51°12.116 2°47.969 239.2 12.2 240 11.1
2009-12-17 08:36:07 51°12.108 2°47.945 239.5 12.2 239 11.4
2009-12-17 08:36:12 51°12.099 2°47.922 238.8 12.2 240 11.2
2009-12-17 08:36:17 51°12.091 2°47.898 239.9 12.2 240 11
2009-12-17 08:36:22 51°12.082 2°47.875 239.2 12.3 239 11.3
2009-12-17 08:36:27 51°12.074 2°47.851 239.6 12.2 241 11.1
2009-12-17 08:36:32 51°12.065 2°47.829 239.5 12.2 237 11.3
2009-12-17 08:36:37 51°12.057 2°47.804 239.3 12.3 242 11.1
2009-12-17 08:36:42 51°12.048 2°47.781 239.4 12.3 238 10.9
2009-12-17 08:36:47 51°12.04 2°47.758 238.9 12.3 241 11.3
2009-12-17 08:36:52 51°12.032 2°47.734 240.2 12.2 242 10.8
2009-12-17 08:36:57 51°12.022 2°47.712 238.8 12.3 237 11.2
2009-12-17 08:37:02 51°12.015 2°47.687 239.6 12.2 241 11.2
2009-12-17 08:37:07 51°12.005 2°47.665 238.7 12.3 239 11.3
2009-12-17 08:37:12 51°11.998 2°47.641 239.7 12.2 242 11
2009-12-17 08:37:17 51°11.988 2°47.618 238.9 12.3 236 11.2
2009-12-17 08:37:22 51°11.98 2°47.594 238.8 12.2 243 10.9
2009-12-17 08:37:27 51°11.971 2°47.572 238.4 12.3 236 10.9
2009-12-17 08:37:32 51°11.963 2°47.548 239.1 12.3 243 11.1
2009-12-17 08:37:37 51°11.954 2°47.525 239.7 12.1 238 11
2009-12-17 08:37:42 51°11.945 2°47.502 238.1 12.3 243 10.8
2009-12-17 08:37:47 51°11.938 2°47.478 240.1 12.1 239 11.1
2009-12-17 08:37:52 51°11.928 2°47.455 238.4 12.2 238 10.7
2009-12-17 08:37:57 51°11.92 2°47.432 239 12.1 240 10.9
2009-12-17 08:38:02 51°11.911 2°47.409 238.4 12.2 238 10.8
2009-12-17 08:38:07 51°11.903 2°47.385 238.9 12.3 242 10.9
2009-12-17 08:38:12 51°11.894 2°47.363 239.7 12.1 239 10.8
2009-12-17 08:38:17 51°11.885 2°47.34 238.4 12.3 237 11
2009-12-17 08:38:22 51°11.877 2°47.316 238.6 12.2 242 11.1
2009-12-17 08:38:27 51°11.868 2°47.293 239.5 12 235 10.7
2009-12-17 08:38:32 51°11.859 2°47.27 237.4 12.3 240 10.9
2009-12-17 08:38:37 51°11.852 2°47.246 240.8 12.1 244 10.7
2009-12-17 08:38:42 51°11.842 2°47.225 238.8 12.1 235 10.8
2009-12-17 08:38:47 51°11.835 2°47.201 237.4 12.2 244 10.8
2009-12-17 08:38:52 51°11.826 2°47.178 239.6 12.1 238 10.9
2009-12-17 08:38:57 51°11.817 2°47.155 238.8 12.1 240 10.7
2009-12-17 08:39:02 51°11.809 2°47.132 239.6 12.1 240 10.8
2009-12-17 08:39:07 51°11.801 2°47.109 239.6 12.1 239 11.1
2009-12-17 08:39:12 51°11.792 2°47.085 239.3 12.1 240 10.7
2009-12-17 08:39:16 51°11.785 2°47.067 239 12.2 240 10.7
2009-12-17 08:39:22 51°11.775 2°47.038 239.9 12.1 240 10.9
2009-12-17 08:39:27 51°11.766 2°47.016 238.9 12.2 238 11.2
2009-12-17 08:39:32 51°11.759 2°46.991 240 12.2 243 10.4
2009-12-17 08:39:37 51°11.749 2°46.969 239.1 12.3 236 10.9
2009-12-17 08:39:42 51°11.742 2°46.945 240.3 12.1 244 10.5
2009-12-17 08:39:47 51°11.733 2°46.922 238.8 12.2 240 10.6
2009-12-17 08:39:52 51°11.728 2°46.897 242.5 12 250 10.3
2009-12-17 08:39:57 51°11.723 2°46.872 249.6 11.8 252 10.7
2009-12-17 08:40:02 51°11.719 2°46.847 254.9 11.8 257 10.9
2009-12-17 08:40:07 51°11.715 2°46.821 257.2 11.8 256 10.6
2009-12-17 08:40:12 51°11.712 2°46.796 258.7 11.9 259 10.9
2009-12-17 08:40:17 51°11.71 2°46.77 261 11.9 261 10.8
2009-12-17 08:40:22 51°11.707 2°46.744 261.9 11.9 262 10.8
2009-12-17 08:40:27 51°11.705 2°46.718 263.3 12 264 11
2009-12-17 08:40:32 51°11.703 2°46.691 264.8 12.1 262 11.1
2009-12-17 08:40:37 51°11.702 2°46.665 265.1 11.9 264 10.8
2009-12-17 08:40:42 51°11.699 2°46.639 265.5 11.9 263 10.9
2009-12-17 08:40:47 51°11.698 2°46.613 265.9 12 265 11.1
2009-12-17 08:40:52 51°11.696 2°46.587 266 11.9 264 11.6
2009-12-17 08:40:57 51°11.694 2°46.56 266.7 12 265 11.4
2009-12-17 08:41:02 51°11.693 2°46.534 266.8 12 265 11.6
2009-12-17 08:41:07 51°11.692 2°46.508 267.5 12 265 11.7
2009-12-17 08:41:12 51°11.69 2°46.481 267.2 12.1 264 11.8
2009-12-17 08:41:17 51°11.69 2°46.454 267.9 12.1 268 11.5
2009-12-17 08:41:22 51°11.688 2°46.427 267.8 12.2 264 11.5
2009-12-17 08:41:27 51°11.687 2°46.4 267.2 12.2 266 11.9
2009-12-17 08:41:32 51°11.685 2°46.374 267.6 12.2 265 11.9
2009-12-17 08:41:37 51°11.685 2°46.347 268.7 12.2 267 12.1
2009-12-17 08:41:42 51°11.683 2°46.32 268.4 12 266 12
2009-12-17 08:41:47 51°11.682 2°46.294 268.6 12.1 265 12.5
2009-12-17 08:41:52 51°11.68 2°46.267 268.2 12.1 265 12.2
2009-12-17 08:41:57 51°11.679 2°46.24 269 12.1 266 12.2
2009-12-17 08:42:02 51°11.678 2°46.213 268.7 12.1 265 12.4
2009-12-17 08:42:07 51°11.678 2°46.187 269.1 12.2 267 12.4
2009-12-17 08:42:12 51°11.676 2°46.16 269.3 12.1 266 12.3
2009-12-17 08:42:16 51°11.675 2°46.139 268.7 12.1 266 12.7
2009-12-17 08:42:22 51°11.674 2°46.107 268.3 12.1 265 12.3
2009-12-17 08:42:27 51°11.673 2°46.08 268.2 12 267 12.6
2009-12-17 08:42:32 51°11.673 2°46.054 269.4 12 268 12.2
2009-12-17 08:42:37 51°11.671 2°46.027 269.5 12.1 267 12.4
2009-12-17 08:42:42 51°11.671 2°46 269.4 12.1 268 12.6
2009-12-17 08:42:47 51°11.67 2°45.974 269.9 12.2 268 12.5
2009-12-17 08:42:52 51°11.67 2°45.947 270.2 12.1 268 12.5
2009-12-17 08:42:57 51°11.669 2°45.92 270.2 12.3 268 12.5
2009-12-17 08:43:02 51°11.669 2°45.893 270.2 12.3 268 12.5
2009-12-17 08:43:07 51°11.668 2°45.866 270.4 12.3 268 12.5
2009-12-17 08:43:12 51°11.668 2°45.839 270 12.3 268 12.4
2009-12-17 08:43:17 51°11.668 2°45.812 270.5 12.3 270 12.3
2009-12-17 08:43:22 51°11.666 2°45.785 269.7 12.2 267 12.4
2009-12-17 08:43:27 51°11.667 2°45.758 270 12.2 269 12.8
2009-12-17 08:43:32 51°11.665 2°45.731 270.1 12.2 267 12.7
2009-12-17 08:43:36 51°11.665 2°45.709 269.8 12.3 267 12.8
2009-12-17 08:43:42 51°11.664 2°45.677 269.6 12.2 268 12.2
2009-12-17 08:43:47 51°11.663 2°45.65 269.9 12.1 268 12.3
2009-12-17 08:43:52 51°11.663 2°45.623 269.9 12.3 267 12.8
2009-12-17 08:43:57 51°11.662 2°45.596 269.6 12.2 268 12.4
2009-12-17 08:44:02 51°11.661 2°45.569 269.4 12.3 267 12.9
2009-12-17 08:44:07 51°11.661 2°45.542 270 12.2 269 12.5
2009-12-17 08:44:12 51°11.66 2°45.515 269.6 12.2 268 12.5
2009-12-17 08:44:17 51°11.66 2°45.488 269.7 12.2 269 12.5
2009-12-17 08:44:22 51°11.659 2°45.461 269.6 12.3 268 12.4
2009-12-17 08:44:27 51°11.659 2°45.434 269.9 12.2 268 12.3
2009-12-17 08:44:32 51°11.658 2°45.407 269.2 12.3 267 12.6
2009-12-17 08:44:37 51°11.658 2°45.38 270 12.3 269 12.5
2009-12-17 08:44:42 51°11.657 2°45.353 270 12.3 267 12.6
2009-12-17 08:44:47 51°11.657 2°45.326 269.8 12.3 269 12.8
2009-12-17 08:44:52 51°11.656 2°45.299 270.1 12.3 268 12.8
2009-12-17 08:44:57 51°11.656 2°45.272 270 12.3 268 12.7
2009-12-17 08:45:02 51°11.655 2°45.245 268.9 12.3 268 12.8
2009-12-17 08:45:07 51°11.655 2°45.218 269.4 12.3 269 12.6
2009-12-17 08:45:12 51°11.653 2°45.191 268.4 12.3 266 12.9
2009-12-17 08:45:17 51°11.652 2°45.164 269.1 12.2 267 13.2
2009-12-17 08:45:22 51°11.652 2°45.137 269 12.1 268 12.7
2009-12-17 08:45:27 51°11.65 2°45.11 269.2 12.2 265 13.6
2009-12-17 08:45:32 51°11.65 2°45.084 270.1 12.1 269 12.8
2009-12-17 08:45:37 51°11.649 2°45.057 269.4 12.1 265 12.7
2009-12-17 08:45:42 51°11.648 2°45.03 268.9 11.9 267 12.1
2009-12-17 08:45:47 51°11.647 2°45.004 268.2 12 266 12.7
2009-12-17 08:45:52 51°11.646 2°44.978 267.2 11.9 265 13.1
2009-12-17 08:45:57 51°11.646 2°44.952 269.4 11.9 270 13
2009-12-17 08:46:02 51°11.644 2°44.925 268.5 12 265 12.7
2009-12-17 08:46:07 51°11.644 2°44.899 267.9 12 268 12.9
2009-12-17 08:46:12 51°11.642 2°44.872 268 12 266 12.5
2009-12-17 08:46:16 51°11.641 2°44.851 267.9 11.9 267 12.4
2009-12-17 08:46:22 51°11.64 2°44.819 267.8 12 267 12.9
2009-12-17 08:46:27 51°11.639 2°44.793 267.6 12.1 265 12.7
2009-12-17 08:46:32 51°11.639 2°44.766 267.8 12 268 12.7
2009-12-17 08:46:37 51°11.637 2°44.74 268.5 12.1 266 12.9
2009-12-17 08:46:42 51°11.637 2°44.713 268.5 12.1 268 12.5
2009-12-17 08:46:47 51°11.636 2°44.687 268.6 12 267 12.7
2009-12-17 08:46:52 51°11.635 2°44.661 268.3 11.9 267 12.3
2009-12-17 08:46:57 51°11.635 2°44.634 268.3 12 268 12.1
2009-12-17 08:47:02 51°11.634 2°44.608 268.6 11.9 267 12.5
2009-12-17 08:47:07 51°11.633 2°44.582 267.9 11.9 267 12.3
2009-12-17 08:47:12 51°11.632 2°44.556 268.4 11.9 268 12.7
2009-12-17 08:47:17 51°11.631 2°44.529 268 12 266 12.8
2009-12-17 08:47:22 51°11.631 2°44.503 268.6 11.7 268 12.2
2009-12-17 08:47:27 51°11.63 2°44.477 268.7 11.8 266 12.6
2009-12-17 08:47:32 51°11.629 2°44.451 269.1 11.8 268 12.9
2009-12-17 08:47:37 51°11.629 2°44.425 270.1 11.7 269 12.3
2009-12-17 08:47:42 51°11.628 2°44.399 269.4 11.7 267 12.4
2009-12-17 08:47:47 51°11.628 2°44.373 269.4 11.8 269 12.1
2009-12-17 08:47:52 51°11.627 2°44.347 269 11.8 268 12.1
2009-12-17 08:47:57 51°11.627 2°44.321 269.4 11.8 269 12.5
2009-12-17 08:48:02 51°11.626 2°44.295 270.1 11.8 268 12.7
2009-12-17 08:48:07 51°11.626 2°44.269 270.1 11.8 268 12.4
2009-12-17 08:48:12 51°11.626 2°44.243 270 11.8 269 12.5
2009-12-17 08:48:16 51°11.625 2°44.222 269.1 11.8 267 12.5
2009-12-17 08:48:22 51°11.625 2°44.192 269.4 11.6 269 12.3
2009-12-17 08:48:27 51°11.624 2°44.166 269.7 11.6 267 11.9
2009-12-17 08:48:32 51°11.623 2°44.14 268.8 11.6 267 12.1
2009-12-17 08:48:37 51°11.622 2°44.114 268.6 11.7 268 11.9
2009-12-17 08:48:42 51°11.622 2°44.088 269.3 11.7 268 12
2009-12-17 08:48:47 51°11.621 2°44.063 269.7 11.6 268 12.1
2009-12-17 08:48:52 51°11.62 2°44.037 269.4 11.7 267 11.4
2009-12-17 08:48:57 51°11.62 2°44.012 269.4 11.5 269 11.4
2009-12-17 08:49:02 51°11.62 2°43.987 269.6 11.3 267 11.6
2009-12-17 08:49:07 51°11.619 2°43.961 268.6 11.5 267 12.5
2009-12-17 08:49:12 51°11.618 2°43.936 269.5 11.4 269 11.8
2009-12-17 08:49:17 51°11.617 2°43.911 268.9 11.3 265 11.6
2009-12-17 08:49:22 51°11.617 2°43.886 267.9 11.5 269 12
2009-12-17 08:49:27 51°11.617 2°43.86 269.8 11.5 270 11.6
2009-12-17 08:49:32 51°11.615 2°43.834 268.6 11.7 264 11.6
2009-12-17 08:49:37 51°11.616 2°43.809 269.4 11.4 272 11.4
2009-12-17 08:49:42 51°11.615 2°43.785 269.5 11.4 265 10.8
2009-12-17 08:49:47 51°11.613 2°43.759 267 11.7 269 11.6
2009-12-17 08:49:52 51°11.614 2°43.733 270.2 11.4 272 12.2
2009-12-17 08:49:57 51°11.612 2°43.708 269.4 11.5 262 11.5
2009-12-17 08:50:02 51°11.612 2°43.683 267.9 11.4 271 11.4
2009-12-17 08:50:07 51°11.612 2°43.658 271 11.3 269 11.3
2009-12-17 08:50:12 51°11.61 2°43.633 267.9 11.5 263 11.5
2009-12-17 08:50:17 51°11.61 2°43.608 268.1 11.5 271 11.4
2009-12-17 08:50:22 51°11.61 2°43.582 269.9 11.5 266 11.2
2009-12-17 08:50:27 51°11.609 2°43.557 268.5 11.6 266 11.2
2009-12-17 08:50:32 51°11.608 2°43.531 268.8 11.6 270 10.9
2009-12-17 08:50:37 51°11.608 2°43.506 269.4 11.6 267 11.3
2009-12-17 08:50:42 51°11.607 2°43.48 268.4 11.6 268 10.7
2009-12-17 08:50:47 51°11.606 2°43.455 268.6 11.5 267 10.9
2009-12-17 08:50:52 51°11.605 2°43.43 268.4 11.4 267 10.8
2009-12-17 08:50:57 51°11.604 2°43.405 268.1 11.4 267 11.2
2009-12-17 08:51:02 51°11.604 2°43.38 268.1 11.4 269 10.8
2009-12-17 08:51:07 51°11.603 2°43.354 269 11.3 268 10.3
2009-12-17 08:51:12 51°11.602 2°43.329 268.4 11.5 266 10.7
2009-12-17 08:51:17 51°11.602 2°43.304 268.5 11.5 268 10.8
2009-12-17 08:51:22 51°11.601 2°43.278 268.8 11.6 267 10.6
2009-12-17 08:51:27 51°11.6 2°43.253 268.6 11.6 268 10.4
2009-12-17 08:51:32 51°11.599 2°43.227 268.9 11.5 267 10.7
2009-12-17 08:51:37 51°11.598 2°43.202 268.3 11.5 266 11.1
2009-12-17 08:51:42 51°11.598 2°43.176 268.9 11.6 268 11
2009-12-17 08:51:47 51°11.597 2°43.151 269.3 11.6 268 10.8
2009-12-17 08:51:52 51°11.597 2°43.125 270.1 11.6 268 10.7
2009-12-17 08:51:57 51°11.596 2°43.1 270 11.6 268 10.5
2009-12-17 08:52:02 51°11.596 2°43.075 269.6 11.6 268 10.5
2009-12-17 08:52:07 51°11.595 2°43.049 270 11.6 268 10.4
2009-12-17 08:52:12 51°11.594 2°43.023 268.9 11.7 267 10.4
2009-12-17 08:52:17 51°11.594 2°42.998 268.7 11.6 268 10.6
2009-12-17 08:52:22 51°11.593 2°42.972 269.2 11.5 267 10
2009-12-17 08:52:27 51°11.592 2°42.947 269 11.5 268 10.2
2009-12-17 08:52:32 51°11.591 2°42.921 269.2 11.6 267 10.5
2009-12-17 08:52:36 51°11.591 2°42.901 268.7 11.5 267 10.7
2009-12-17 08:52:42 51°11.59 2°42.87 268.7 11.5 267 10.6
2009-12-17 08:52:47 51°11.589 2°42.845 269.2 11.5 266 10.2
2009-12-17 08:52:52 51°11.589 2°42.82 268.9 11.4 269 10.1
2009-12-17 08:52:57 51°11.588 2°42.794 269 11.5 267 10.1
2009-12-17 08:53:02 51°11.587 2°42.769 268.3 11.4 267 10.2
2009-12-17 08:53:07 51°11.586 2°42.744 268.3 11.4 267 10.2
2009-12-17 08:53:12 51°11.585 2°42.718 268.6 11.5 267 10.4
2009-12-17 08:53:17 51°11.585 2°42.693 268.9 11.4 269 10.5
2009-12-17 08:53:22 51°11.583 2°42.668 268.3 11.6 264 10.8
2009-12-17 08:53:27 51°11.583 2°42.643 268.7 11.5 268 10.7
2009-12-17 08:53:32 51°11.582 2°42.617 269.4 11.5 267 10.8
2009-12-17 08:53:37 51°11.581 2°42.592 270.7 11.5 268 10.5
2009-12-17 08:53:42 51°11.58 2°42.566 269.5 11.5 266 10.4
2009-12-17 08:53:47 51°11.58 2°42.541 269.3 11.4 269 10.5
2009-12-17 08:53:52 51°11.58 2°42.516 270.5 11.5 268 10.3
2009-12-17 08:53:57 51°11.579 2°42.49 269.7 11.6 266 10.7
2009-12-17 08:54:02 51°11.578 2°42.465 269.4 11.5 269 10.3
2009-12-17 08:54:07 51°11.578 2°42.439 270.8 11.5 268 10.4
2009-12-17 08:54:12 51°11.577 2°42.414 270 11.5 267 9.8
2009-12-17 08:54:17 51°11.577 2°42.389 269.3 11.4 267 10.3
2009-12-17 08:54:22 51°11.576 2°42.363 268.9 11.5 268 10.3
2009-12-17 08:54:27 51°11.574 2°42.338 269.4 11.5 266 10.2
2009-12-17 08:54:32 51°11.574 2°42.312 269.3 11.5 267 9.8
2009-12-17 08:54:37 51°11.572 2°42.287 267.3 11.5 264 9.9
2009-12-17 08:54:42 51°11.571 2°42.262 267.5 11.5 267 10.1
2009-12-17 08:54:47 51°11.57 2°42.237 267.8 11.7 265 10.4
2009-12-17 08:54:52 51°11.569 2°42.211 267.5 11.6 267 9.9
2009-12-17 08:54:56 51°11.568 2°42.191 267.8 11.6 265 9.6
2009-12-17 08:55:02 51°11.567 2°42.161 267.5 11.5 266 10.6
2009-12-17 08:55:07 51°11.565 2°42.135 267.4 11.6 264 10.5
2009-12-17 08:55:12 51°11.564 2°42.11 267.2 11.4 265 9.6
2009-12-17 08:55:17 51°11.563 2°42.085 268.2 11.3 266 10.1
2009-12-17 08:55:22 51°11.561 2°42.059 266.2 11.5 264 10.2
2009-12-17 08:55:27 51°11.559 2°42.034 266.5 11.4 265 9.8
2009-12-17 08:55:32 51°11.558 2°42.009 265.8 11.5 263 10.9
2009-12-17 08:55:37 51°11.556 2°41.984 265.8 11.5 264 11
2009-12-17 08:55:42 51°11.554 2°41.959 266.3 11.6 264 10.8
2009-12-17 08:55:47 51°11.553 2°41.933 265.8 11.6 263 10.6
2009-12-17 08:55:52 51°11.551 2°41.908 265.3 11.6 263 10.6
2009-12-17 08:55:57 51°11.549 2°41.883 265.7 11.5 262 10.8
2009-12-17 08:56:02 51°11.547 2°41.858 265 11.5 263 10.8
2009-12-17 08:56:07 51°11.545 2°41.832 265 11.6 263 10.5
2009-12-17 08:56:12 51°11.543 2°41.807 265.8 11.6 265 10.7
2009-12-17 08:56:17 51°11.541 2°41.781 266.2 11.7 263 11.5
2009-12-17 08:56:22 51°11.54 2°41.755 266.6 11.7 264 11.2
2009-12-17 08:56:27 51°11.539 2°41.73 266.9 11.7 265 10.9
2009-12-17 08:56:32 51°11.537 2°41.704 266.9 11.6 265 11.4
2009-12-17 08:56:37 51°11.536 2°41.679 266.2 11.6 264 11.5
2009-12-17 08:56:42 51°11.534 2°41.655 266.3 10.5 266 11.3
2009-12-17 08:56:47 51°11.533 2°41.634 266.1 9.7 266 11.4
2009-12-17 08:56:52 51°11.532 2°41.614 267 9 265 11.7
2009-12-17 08:56:57 51°11.532 2°41.596 270.3 8.2 271 12.1
2009-12-17 08:57:02 51°11.532 2°41.579 275.8 7.4 274 11.8
2009-12-17 08:57:07 51°11.534 2°41.565 280.5 6.7 279 12.3
2009-12-17 08:57:12 51°11.536 2°41.551 285.9 6.3 282 12.5
2009-12-17 08:57:17 51°11.538 2°41.539 291.4 5.8 288 12.1
2009-12-17 08:57:22 51°11.541 2°41.527 296.2 5.6 292 12.4
2009-12-17 08:57:27 51°11.544 2°41.516 302.5 5.3 298 12.9
2009-12-17 08:57:32 51°11.548 2°41.508 310.1 5 303 13
2009-12-17 08:57:37 51°11.553 2°41.5 317.3 4.7 310 13.2
2009-12-17 08:57:42 51°11.557 2°41.493 324.3 4.4 317 12.8
2009-12-17 08:57:47 51°11.562 2°41.488 331.6 4.2 326 12.9
2009-12-17 08:57:52 51°11.567 2°41.484 340.6 4 331 13.3
2009-12-17 08:57:57 51°11.571 2°41.48 346.6 3.8 337 13.5
2009-12-17 08:58:02 51°11.577 2°41.478 354.1 3.7 344 13.2
2009-12-17 08:58:07 51°11.581 2°41.477 359.8 3.6 348 13.3
2009-12-17 08:58:12 51°11.586 2°41.475 1.6 3.7 345 13.6
2009-12-17 08:58:17 51°11.591 2°41.472 359.1 3.7 341 13.8
2009-12-17 08:58:22 51°11.596 2°41.469 353.6 3.9 335 13.7
2009-12-17 08:58:27 51°11.601 2°41.464 346.8 3.8 328 13.6
2009-12-17 08:58:32 51°11.605 2°41.459 339.7 3.9 322 13.6
2009-12-17 08:58:37 51°11.609 2°41.453 332.5 3.9 314 13.9
2009-12-17 08:58:42 51°11.612 2°41.446 325 4 304 14.4
2009-12-17 08:58:47 51°11.615 2°41.438 317.5 4.2 297 14.6
2009-12-17 08:58:52 51°11.617 2°41.429 309.7 4.4 291 14.6
2009-12-17 08:58:57 51°11.618 2°41.418 300.4 4.6 283 14.6
2009-12-17 08:59:02 51°11.619 2°41.409 290.8 4.5 274 14.3
2009-12-17 08:59:07 51°11.619 2°41.399 282.1 4.3 266 14.8
2009-12-17 08:59:12 51°11.618 2°41.39 275 4.2 265 15
2009-12-17 08:59:17 51°11.617 2°41.381 268.7 4 260 14.6
2009-12-17 08:59:22 51°11.616 2°41.373 262.8 4 255 14.9
2009-12-17 08:59:27 51°11.614 2°41.364 258 4 253 14.8
2009-12-17 08:59:32 51°11.612 2°41.356 253.1 4 248 14.9
2009-12-17 08:59:37 51°11.609 2°41.348 248.2 4 244 15.2
2009-12-17 08:59:42 51°11.607 2°41.341 243.6 3.9 240 14.7
2009-12-17 08:59:47 51°11.604 2°41.334 238.3 3.8 235 14.9
2009-12-17 08:59:52 51°11.601 2°41.327 233.1 3.8 235 14.7
2009-12-17 08:59:57 51°11.597 2°41.321 227.6 3.7 224 14.8
2009-12-17 09:00:02 51°11.593 2°41.315 222.7 3.7 223 14.9
2009-12-17 09:00:07 51°11.589 2°41.31 216.5 3.8 221 14.4
2009-12-17 09:00:12 51°11.585 2°41.305 210.9 3.8 216 14.2
2009-12-17 09:00:17 51°11.58 2°41.301 205.2 3.8 208 14.7
2009-12-17 09:00:22 51°11.575 2°41.297 199.3 3.8 205 14.4
2009-12-17 09:00:27 51°11.57 2°41.294 192.4 3.8 199 14.6
2009-12-17 09:00:32 51°11.565 2°41.292 185.4 3.9 197 14.4
2009-12-17 09:00:37 51°11.56 2°41.291 179 3.8 188 14.3
2009-12-17 09:00:42 51°11.555 2°41.29 173.9 3.9 185 14.5
2009-12-17 09:00:47 51°11.549 2°41.29 167.7 3.9 178 14.1
2009-12-17 09:00:52 51°11.543 2°41.291 162.9 4.2 176 14.1
2009-12-17 09:00:57 51°11.538 2°41.292 159.9 4.3 174 14.1
2009-12-17 09:01:02 51°11.531 2°41.294 157.6 4.7 171 14
2009-12-17 09:01:07 51°11.525 2°41.296 156.6 4.9 168 13.9
2009-12-17 09:01:12 51°11.517 2°41.299 155.6 5.2 167 13.7
2009-12-17 09:01:17 51°11.51 2°41.301 156.1 5.4 168 13.5
2009-12-17 09:01:22 51°11.502 2°41.304 156.2 5.8 169 13.6
2009-12-17 09:01:27 51°11.494 2°41.307 157.2 5.8 167 13.2
2009-12-17 09:01:32 51°11.486 2°41.309 157.8 5.9 168 13.2
2009-12-17 09:01:36 51°11.479 2°41.311 159.3 6.1 169 13.2
2009-12-17 09:01:42 51°11.47 2°41.314 159.7 6.1 172 12.8
2009-12-17 09:01:47 51°11.461 2°41.316 161.3 6 171 13
2009-12-17 09:01:52 51°11.453 2°41.318 162.4 5.9 172 12.7
2009-12-17 09:01:57 51°11.445 2°41.319 163.4 5.8 176 12.7
2009-12-17 09:02:02 51°11.438 2°41.32 165.1 5.5 175 12.7
2009-12-17 09:02:07 51°11.43 2°41.32 165.8 5.4 178 12.3
2009-12-17 09:02:12 51°11.423 2°41.321 167.5 5.3 176 12.8
2009-12-17 09:02:17 51°11.416 2°41.32 168.6 5.2 182 12.2
2009-12-17 09:02:22 51°11.409 2°41.321 169.5 5.1 178 12.5
2009-12-17 09:02:27 51°11.402 2°41.32 171 4.9 182 12.4
2009-12-17 09:02:32 51°11.396 2°41.32 172 4.8 183 12.7
2009-12-17 09:02:37 51°11.389 2°41.319 173.1 4.8 185 12.4
2009-12-17 09:02:42 51°11.382 2°41.318 174.7 4.8 187 12.6
2009-12-17 09:02:47 51°11.376 2°41.316 176.5 4.7 187 12.6
2009-12-17 09:02:52 51°11.369 2°41.314 178.2 4.7 190 12.4
2009-12-17 09:02:57 51°11.363 2°41.313 179.8 4.6 190 12.7
2009-12-17 09:03:02 51°11.357 2°41.31 182.3 4.6 192 12.5
2009-12-17 09:03:07 51°11.35 2°41.308 183.3 4.6 195 12.6
2009-12-17 09:03:12 51°11.344 2°41.305 185.9 4.5 196 12.7
2009-12-17 09:03:17 51°11.338 2°41.302 187.4 4.5 198 12.5
2009-12-17 09:03:22 51°11.332 2°41.298 189.4 4.5 200 12.5
2009-12-17 09:03:27 51°11.327 2°41.295 191.7 4.5 202 12.7
2009-12-17 09:03:32 51°11.321 2°41.291 193.9 4.4 203 12.7
2009-12-17 09:03:37 51°11.315 2°41.287 195.6 4.5 204 12.3
2009-12-17 09:03:42 51°11.309 2°41.283 197 4.5 208 12.2
2009-12-17 09:03:47 51°11.304 2°41.278 199.8 4.4 207 12.5
2009-12-17 09:03:52 51°11.298 2°41.274 201.5 4.4 208 12.5
2009-12-17 09:03:57 51°11.293 2°41.269 203.3 4.3 208 12.6
2009-12-17 09:04:02 51°11.288 2°41.263 204.9 4.4 216 12.2
2009-12-17 09:04:07 51°11.283 2°41.258 207.1 4.4 212 12.7
2009-12-17 09:04:12 51°11.278 2°41.252 209.8 4.4 216 12.8
2009-12-17 09:04:17 51°11.273 2°41.246 210.6 4.4 219 12.1
2009-12-17 09:04:22 51°11.269 2°41.24 213.1 4.3 218 12.6
2009-12-17 09:04:27 51°11.264 2°41.234 216.2 4.3 219 12.6
2009-12-17 09:04:32 51°11.26 2°41.227 217.4 4.4 224 12.3
2009-12-17 09:04:37 51°11.255 2°41.221 219.4 4.3 222 12.8
2009-12-17 09:04:42 51°11.251 2°41.213 221.8 4.3 228 12.5
2009-12-17 09:04:47 51°11.247 2°41.207 222.3 4.3 227 12.3
2009-12-17 09:04:52 51°11.243 2°41.2 223 4.3 227 12.6
2009-12-17 09:04:57 51°11.239 2°41.192 223.9 4.3 225 12.7
2009-12-17 09:05:02 51°11.235 2°41.185 223.4 4.3 230 12.4
2009-12-17 09:05:07 51°11.231 2°41.179 222.6 4.3 226 12.5
2009-12-17 09:05:12 51°11.227 2°41.172 222 4.2 224 12.7
2009-12-17 09:05:17 51°11.222 2°41.166 220.5 4.2 223 12.7
2009-12-17 09:05:22 51°11.218 2°41.159 219.5 4.2 224 12.7
2009-12-17 09:05:27 51°11.214 2°41.152 218.8 4.2 224 12.7
2009-12-17 09:05:32 51°11.21 2°41.146 218.6 4.3 225 12.4
2009-12-17 09:05:37 51°11.205 2°41.14 218.5 4.2 223 12.7
2009-12-17 09:05:42 51°11.201 2°41.133 218.5 4.2 224 12.6
2009-12-17 09:05:47 51°11.197 2°41.126 218.5 4.3 226 12.3
2009-12-17 09:05:52 51°11.193 2°41.12 218.6 4.2 222 12.6
2009-12-17 09:05:57 51°11.189 2°41.113 219.1 4.2 226 12.6
2009-12-17 09:06:02 51°11.185 2°41.106 218.6 4.3 228 12.5
2009-12-17 09:06:07 51°11.181 2°41.1 218.9 4.3 225 12.6
2009-12-17 09:06:12 51°11.176 2°41.094 218.6 4.2 224 12.5
2009-12-17 09:06:16 51°11.173 2°41.088 218.6 4.2 222 12.8
2009-12-17 09:06:22 51°11.168 2°41.081 217.8 4.3 225 12.3
2009-12-17 09:06:27 51°11.163 2°41.075 217.2 4.1 223 12.6
2009-12-17 09:06:32 51°11.159 2°41.068 217.9 4.1 224 12.6
2009-12-17 09:06:37 51°11.155 2°41.062 217.4 4.1 225 12.3
2009-12-17 09:06:42 51°11.151 2°41.056 217.7 4 225 12.7
2009-12-17 09:06:47 51°11.148 2°41.05 218.2 3.9 224 12.8
2009-12-17 09:06:52 51°11.143 2°41.044 218.4 3.9 225 12.8
2009-12-17 09:06:57 51°11.139 2°41.038 218.4 3.9 222 12.9
2009-12-17 09:07:02 51°11.136 2°41.031 218.5 3.9 224 12.8
2009-12-17 09:07:07 51°11.132 2°41.025 219.1 3.9 225 12.5
2009-12-17 09:07:12 51°11.128 2°41.019 219.6 3.9 227 12.6
2009-12-17 09:07:17 51°11.124 2°41.013 219.9 3.9 225 12.6
2009-12-17 09:07:22 51°11.121 2°41.007 220 3.9 227 12.8
2009-12-17 09:07:27 51°11.117 2°41.001 220.6 3.8 227 12.7
2009-12-17 09:07:32 51°11.113 2°40.995 221 3.9 226 12.5
2009-12-17 09:07:37 51°11.109 2°40.989 220.9 3.8 226 12.9
2009-12-17 09:07:42 51°11.106 2°40.983 221.1 3.8 225 13
2009-12-17 09:07:47 51°11.102 2°40.977 220.8 3.8 228 12.7
2009-12-17 09:07:52 51°11.098 2°40.971 220.8 3.8 226 12.7
2009-12-17 09:07:57 51°11.095 2°40.965 221.1 3.7 224 13.2
2009-12-17 09:08:02 51°11.091 2°40.958 220.9 3.8 227 12.9
2009-12-17 09:08:07 51°11.088 2°40.953 220.7 3.9 226 12.8
2009-12-17 09:08:12 51°11.084 2°40.947 220.6 3.7 223 13.3
2009-12-17 09:08:17 51°11.08 2°40.941 219.8 3.7 224 13.2
2009-12-17 09:08:22 51°11.077 2°40.935 219.3 3.7 224 13.1
2009-12-17 09:08:27 51°11.073 2°40.929 218.6 3.8 228 12.7
2009-12-17 09:08:32 51°11.069 2°40.924 219.1 3.7 224 13
2009-12-17 09:08:37 51°11.066 2°40.918 219.3 3.7 224 13.1
2009-12-17 09:08:42 51°11.062 2°40.912 219 3.8 228 12.8
2009-12-17 09:08:47 51°11.059 2°40.906 219 3.8 227 13.1
2009-12-17 09:08:52 51°11.055 2°40.9 219.7 3.6 224 13.4
2009-12-17 09:08:57 51°11.051 2°40.895 219.1 3.7 226 13
2009-12-17 09:09:02 51°11.048 2°40.889 219 3.7 226 13
2009-12-17 09:09:07 51°11.044 2°40.883 219.5 3.7 224 13.2
2009-12-17 09:09:12 51°11.041 2°40.877 219.9 3.7 228 13.2
2009-12-17 09:09:17 51°11.037 2°40.871 220.7 3.7 225 13.3
2009-12-17 09:09:22 51°11.034 2°40.865 220.9 3.7 229 13.1
2009-12-17 09:09:27 51°11.03 2°40.859 221.5 3.7 228 13
2009-12-17 09:09:32 51°11.027 2°40.852 222.2 3.7 229 13.2
2009-12-17 09:09:37 51°11.024 2°40.846 223 3.7 230 13.3
2009-12-17 09:09:42 51°11.02 2°40.84 223.6 3.7 231 12.8
2009-12-17 09:09:47 51°11.017 2°40.834 224.4 3.7 228 13
2009-12-17 09:09:52 51°11.014 2°40.827 224.4 3.7 231 13.2
2009-12-17 09:09:57 51°11.01 2°40.821 224.7 3.7 229 13.2
2009-12-17 09:10:02 51°11.007 2°40.814 225.1 3.8 230 13.3
2009-12-17 09:10:07 51°11.004 2°40.808 225.3 3.8 232 13
2009-12-17 09:10:12 51°11 2°40.801 226.1 3.7 231 13.3
2009-12-17 09:10:17 51°10.997 2°40.795 226.2 3.7 230 13.5
2009-12-17 09:10:22 51°10.994 2°40.788 225.9 3.7 229 13.2
2009-12-17 09:10:27 51°10.99 2°40.782 225.5 3.7 231 13.1
2009-12-17 09:10:32 51°10.987 2°40.776 225.8 3.7 230 13.2
2009-12-17 09:10:37 51°10.984 2°40.77 225.9 3.7 230 13.3
2009-12-17 09:10:42 51°10.981 2°40.763 225.7 3.7 229 13.2
2009-12-17 09:10:47 51°10.977 2°40.757 225 3.8 231 13.2
2009-12-17 09:10:52 51°10.974 2°40.75 225.1 3.8 233 13
2009-12-17 09:10:57 51°10.971 2°40.744 225.5 3.7 228 13.3
2009-12-17 09:11:02 51°10.968 2°40.737 225.3 3.7 231 13.5
2009-12-17 09:11:07 51°10.964 2°40.731 224.7 3.8 232 12.8
2009-12-17 09:11:12 51°10.961 2°40.725 225 3.8 230 12.7
2009-12-17 09:11:17 51°10.957 2°40.719 226 3.7 228 13.3
2009-12-17 09:11:22 51°10.954 2°40.712 225.5 3.7 231 13.5
2009-12-17 09:11:27 51°10.951 2°40.706 225 3.7 229 13.5
2009-12-17 09:11:32 51°10.948 2°40.699 225.1 3.8 232 13.3
2009-12-17 09:11:37 51°10.944 2°40.693 225.1 3.7 230 13.1
2009-12-17 09:11:42 51°10.941 2°40.687 225.6 3.7 229 13.5
2009-12-17 09:11:47 51°10.938 2°40.68 225 3.6 230 13.6
2009-12-17 09:11:52 51°10.935 2°40.674 224.4 3.7 232 13.4
2009-12-17 09:11:57 51°10.931 2°40.668 224.4 3.8 231 12.8
2009-12-17 09:12:02 51°10.928 2°40.662 224.4 3.7 231 13.2
2009-12-17 09:12:07 51°10.925 2°40.656 224.6 3.6 227 13.9
2009-12-17 09:12:12 51°10.922 2°40.649 224 3.7 234 13.4
2009-12-17 09:12:17 51°10.918 2°40.643 223.6 3.6 231 13.2
2009-12-17 09:12:22 51°10.915 2°40.637 224.4 3.7 228 13.5
2009-12-17 09:12:27 51°10.912 2°40.631 224.3 3.7 227 13.9
2009-12-17 09:12:32 51°10.908 2°40.625 224.2 3.7 230 13.5
2009-12-17 09:12:37 51°10.905 2°40.619 223.5 3.6 227 13.8
2009-12-17 09:12:42 51°10.902 2°40.612 223.7 3.7 229 13.6
2009-12-17 09:12:47 51°10.899 2°40.606 224.2 3.7 232 13.2
2009-12-17 09:12:52 51°10.895 2°40.6 224.2 3.7 228 13.4
2009-12-17 09:12:57 51°10.892 2°40.594 224.3 3.7 231 13.2
2009-12-17 09:13:02 51°10.889 2°40.588 224.4 3.7 231 13.4
2009-12-17 09:13:07 51°10.886 2°40.581 225.3 3.6 229 13.6
2009-12-17 09:13:12 51°10.882 2°40.575 224.7 3.7 231 13.6
2009-12-17 09:13:17 51°10.879 2°40.569 225.1 3.7 232 13.3
2009-12-17 09:13:22 51°10.876 2°40.563 225 3.8 230 13.3
2009-12-17 09:13:27 51°10.872 2°40.556 225.3 3.8 229 13.6
2009-12-17 09:13:32 51°10.869 2°40.55 225.4 3.7 230 13.9
2009-12-17 09:13:37 51°10.866 2°40.543 225.7 3.7 230 14.1
2009-12-17 09:13:42 51°10.863 2°40.537 225.3 3.7 229 13.5
2009-12-17 09:13:47 51°10.86 2°40.53 225.1 3.7 233 13.1
2009-12-17 09:13:52 51°10.856 2°40.524 225.6 3.7 230 13.6
2009-12-17 09:13:57 51°10.853 2°40.518 225 3.7 231 13.4
2009-12-17 09:14:02 51°10.85 2°40.512 224.5 3.7 230 13.7
2009-12-17 09:14:07 51°10.847 2°40.505 224.5 3.8 232 13.6
2009-12-17 09:14:12 51°10.844 2°40.499 224.7 3.7 231 13.7
2009-12-17 09:14:17 51°10.841 2°40.493 225.3 3.7 229 14.2
2009-12-17 09:14:22 51°10.837 2°40.486 224.9 3.7 230 14.1
2009-12-17 09:14:27 51°10.834 2°40.48 224.2 3.7 228 13.8
2009-12-17 09:14:32 51°10.83 2°40.474 224.4 3.7 229 13.7
2009-12-17 09:14:37 51°10.827 2°40.468 224.4 3.7 228 14.2
2009-12-17 09:14:42 51°10.824 2°40.461 223.9 3.8 232 13.7
2009-12-17 09:14:47 51°10.821 2°40.454 224.2 3.8 232 13.4
2009-12-17 09:14:52 51°10.817 2°40.448 225.1 3.8 229 13.8
2009-12-17 09:14:57 51°10.814 2°40.442 225.1 3.8 230 13.8
2009-12-17 09:15:02 51°10.81 2°40.435 224.4 3.9 233 13.7
2009-12-17 09:15:07 51°10.807 2°40.429 224.8 3.8 226 14.2
2009-12-17 09:15:12 51°10.803 2°40.422 224.7 3.9 231 13.8
2009-12-17 09:15:17 51°10.8 2°40.415 223.7 3.9 229 13.7
2009-12-17 09:15:22 51°10.797 2°40.409 224.3 3.9 229 14.3
2009-12-17 09:15:27 51°10.793 2°40.402 224 3.9 227 14
2009-12-17 09:15:32 51°10.789 2°40.396 223.1 3.9 228 13.9
2009-12-17 09:15:37 51°10.786 2°40.389 223.5 3.9 228 13.8
2009-12-17 09:15:42 51°10.782 2°40.383 223.6 4 230 13.5
2009-12-17 09:15:47 51°10.778 2°40.377 223.5 4 228 13.5
2009-12-17 09:15:52 51°10.775 2°40.37 224.2 4 229 13.6
2009-12-17 09:15:57 51°10.771 2°40.363 224.1 4 231 13.5
2009-12-17 09:16:02 51°10.768 2°40.356 224.8 4 229 13.8
2009-12-17 09:16:07 51°10.764 2°40.349 225.7 4 230 13.9
2009-12-17 09:16:12 51°10.761 2°40.342 226.6 4.1 232 13.9
2009-12-17 09:16:17 51°10.757 2°40.335 227 4 232 13.8
2009-12-17 09:16:22 51°10.754 2°40.328 228.3 4 232 13.5
2009-12-17 09:16:27 51°10.75 2°40.321 229 4 237 13.2
2009-12-17 09:16:32 51°10.747 2°40.314 230.6 3.9 231 14.2
2009-12-17 09:16:37 51°10.744 2°40.306 231.5 4 237 14.2
2009-12-17 09:16:42 51°10.741 2°40.299 231.3 4.1 239 13.5
2009-12-17 09:16:47 51°10.737 2°40.291 232.8 4 235 14
2009-12-17 09:16:52 51°10.734 2°40.284 233 4 237 14.1
2009-12-17 09:16:57 51°10.731 2°40.276 233.5 4.1 238 13.6
2009-12-17 09:17:02 51°10.728 2°40.269 234.1 4.1 240 13.7
2009-12-17 09:17:07 51°10.725 2°40.261 234.7 4.1 236 14.4
2009-12-17 09:17:12 51°10.722 2°40.254 235.2 4 239 13.9
2009-12-17 09:17:17 51°10.719 2°40.246 235 4 237 14
2009-12-17 09:17:22 51°10.716 2°40.238 236 4 237 14.4
2009-12-17 09:17:27 51°10.713 2°40.23 236 4.1 240 13.9
2009-12-17 09:17:32 51°10.71 2°40.223 236 4 240 14
2009-12-17 09:17:37 51°10.707 2°40.215 236.1 4 238 14
2009-12-17 09:17:42 51°10.705 2°40.207 235.9 4.1 239 14.3
2009-12-17 09:17:47 51°10.702 2°40.199 235.9 4.1 240 14.1
2009-12-17 09:17:52 51°10.699 2°40.192 236.5 4.1 240 13.8
2009-12-17 09:17:57 51°10.696 2°40.184 236.2 4.1 239 14
2009-12-17 09:18:02 51°10.693 2°40.176 236.3 4.1 238 14.3
2009-12-17 09:18:07 51°10.691 2°40.168 236.9 4 240 14.5
2009-12-17 09:18:12 51°10.688 2°40.16 237.4 4.1 240 14.4
2009-12-17 09:18:17 51°10.685 2°40.152 237 4.1 243 13.8
2009-12-17 09:18:22 51°10.682 2°40.145 236.8 4 240 14
2009-12-17 09:18:27 51°10.679 2°40.137 237.2 4 239 14.4
2009-12-17 09:18:32 51°10.677 2°40.129 236.6 4.1 241 14.3
2009-12-17 09:18:37 51°10.674 2°40.121 236.4 4.1 242 13.7
2009-12-17 09:18:42 51°10.671 2°40.114 236.5 4 238 14.1
2009-12-17 09:18:47 51°10.668 2°40.106 236 4.1 237 14.7
2009-12-17 09:18:52 51°10.665 2°40.098 235.3 4.1 239 14.4
2009-12-17 09:18:57 51°10.662 2°40.091 235.3 4.1 237 14.4
2009-12-17 09:19:02 51°10.659 2°40.083 235.2 4.2 239 14.1
2009-12-17 09:19:07 51°10.656 2°40.075 235.2 4.1 240 14.2
2009-12-17 09:19:12 51°10.653 2°40.068 235.5 4.1 237 14.4
2009-12-17 09:19:17 51°10.65 2°40.06 235.2 4.1 238 14.7
2009-12-17 09:19:22 51°10.646 2°40.053 235 4 235 14.6
2009-12-17 09:19:27 51°10.644 2°40.045 234.7 4 236 14.5
2009-12-17 09:19:32 51°10.64 2°40.038 233.8 4 238 14.2
2009-12-17 09:19:37 51°10.637 2°40.03 234.3 4.1 234 14.5
2009-12-17 09:19:42 51°10.634 2°40.023 234.1 4.1 236 14.6
2009-12-17 09:19:47 51°10.631 2°40.015 234.3 4 236 14.6
2009-12-17 09:19:52 51°10.628 2°40.008 234.4 4 239 14.3
2009-12-17 09:19:57 51°10.625 2°40 234.5 4 238 14.1
2009-12-17 09:20:02 51°10.622 2°39.993 234.5 4 238 14.4
2009-12-17 09:20:07 51°10.619 2°39.986 235.5 4 237 14.5
2009-12-17 09:20:12 51°10.617 2°39.978 235.3 3.9 237 14.9
2009-12-17 09:20:17 51°10.614 2°39.97 234.9 4 239 14.6
2009-12-17 09:20:22 51°10.611 2°39.963 234.6 4 240 14.1
2009-12-17 09:20:27 51°10.608 2°39.956 234.8 4 237 14.6
2009-12-17 09:20:32 51°10.605 2°39.948 235 4 239 15
2009-12-17 09:20:37 51°10.602 2°39.941 235.4 4 235 15.1
2009-12-17 09:20:42 51°10.599 2°39.933 234.9 4 239 14.6
2009-12-17 09:20:47 51°10.596 2°39.926 235 3.9 236 14.8
2009-12-17 09:20:52 51°10.593 2°39.918 235.5 4 237 15
2009-12-17 09:20:57 51°10.59 2°39.911 235.3 3.9 240 14.3
2009-12-17 09:21:02 51°10.587 2°39.904 235.4 3.9 236 14.9
2009-12-17 09:21:07 51°10.585 2°39.896 236.4 3.8 239 14.9
2009-12-17 09:21:12 51°10.581 2°39.89 235.4 3.8 236 14.3
2009-12-17 09:21:17 51°10.579 2°39.883 234.9 3.7 236 14.5
2009-12-17 09:21:22 51°10.576 2°39.876 234.6 3.7 237 14.9
2009-12-17 09:21:27 51°10.573 2°39.869 234.6 3.7 236 15.2
2009-12-17 09:21:32 51°10.571 2°39.861 234.6 3.8 240 14.5
2009-12-17 09:21:37 51°10.568 2°39.855 234.3 3.7 236 14.7
2009-12-17 09:21:42 51°10.565 2°39.848 235.2 3.7 235 15
2009-12-17 09:21:47 51°10.563 2°39.841 234.8 3.7 241 14.6
2009-12-17 09:21:52 51°10.56 2°39.834 235.3 3.7 238 14.6
2009-12-17 09:21:57 51°10.557 2°39.827 236.8 3.7 242 14.5
2009-12-17 09:22:02 51°10.555 2°39.82 237.9 3.7 243 14.2
2009-12-17 09:22:07 51°10.552 2°39.813 239.3 3.6 239 15.1
2009-12-17 09:22:12 51°10.55 2°39.806 240.2 3.6 241 15.3
2009-12-17 09:22:17 51°10.548 2°39.799 240.7 3.6 245 14.5
2009-12-17 09:22:22 51°10.545 2°39.792 241.5 3.6 243 14.3
2009-12-17 09:22:27 51°10.543 2°39.785 242.7 3.6 241 14.6
2009-12-17 09:22:32 51°10.541 2°39.778 242.6 3.6 242 14.7
2009-12-17 09:22:37 51°10.538 2°39.771 243 3.6 242 15.1
2009-12-17 09:22:42 51°10.536 2°39.763 243.8 3.6 244 14.9
2009-12-17 09:22:47 51°10.535 2°39.756 243.2 3.6 249 14.6
2009-12-17 09:22:52 51°10.532 2°39.749 244 3.6 242 15.3
2009-12-17 09:22:57 51°10.53 2°39.741 244.9 3.7 243 15.4
2009-12-17 09:23:02 51°10.528 2°39.734 244.4 3.6 246 14.9
2009-12-17 09:23:07 51°10.526 2°39.727 244.7 3.6 247 14.7
2009-12-17 09:23:12 51°10.524 2°39.72 245.6 3.6 244 14.9
2009-12-17 09:23:17 51°10.522 2°39.713 245.3 3.6 245 15.3